Time;durP1;ratioP1;P1;durP2;ratioP2;P2;SDS_P1;SDS_P2;PMS_P1;PMS_P2;Temp;Humidity;BMP_temperature;BMP_pressure;BME280_temperature;BME280_humidity;BME280_pressure;Samples;Min_cycle;Max_cycle;Signal;HPM_P1;HPM_P2
2022/03/25 00:01:00;;;;;;;81.53;29.73;;;;;;;7.33;100.00;102910.88;5223176;28;20151;-77
2022/03/25 00:03:31;;;;;;;84.68;31.00;;;;;;;7.27;100.00;102912.13;5219838;28;20029;-77
2022/03/25 00:06:01;;;;;;;80.75;30.17;;;;;;;7.23;100.00;102907.97;5224146;28;20565;-77
2022/03/25 00:08:32;;;;;;;86.03;31.75;;;;;;;7.15;100.00;102903.06;5211001;28;20025;-77
2022/03/25 00:11:03;;;;;;;84.70;30.45;;;;;;;7.10;100.00;102905.16;5209003;28;20499;-77
2022/03/25 00:13:33;;;;;;;79.60;31.10;;;;;;;7.04;100.00;102905.53;5204217;28;20511;-77
2022/03/25 00:16:05;;;;;;;82.45;33.42;;;;;;;6.97;100.00;102913.03;5213449;28;20036;-77
2022/03/25 00:18:35;;;;;;;87.35;32.45;;;;;;;6.89;100.00;102917.16;5219010;28;20495;-77
2022/03/25 00:21:06;;;;;;;81.20;31.98;;;;;;;6.81;100.00;102914.91;5219619;28;20022;-77
2022/03/25 00:23:36;;;;;;;89.57;32.50;;;;;;;6.77;100.00;102917.84;5222972;28;20445;-77
2022/03/25 00:26:07;;;;;;;86.80;30.55;;;;;;;6.73;100.00;102912.72;5227976;28;20388;-77
2022/03/25 00:28:39;;;;;;;86.70;33.13;;;;;;;6.69;100.00;102916.50;5228400;28;20040;-77
2022/03/25 00:31:09;;;;;;;91.65;31.70;;;;;;;6.63;100.00;102922.22;5220569;28;20025;-77
2022/03/25 00:33:42;;;;;;;82.93;31.13;;;;;;;6.54;100.00;102922.75;5228502;28;20071;-77
2022/03/25 00:36:12;;;;;;;94.32;33.50;;;;;;;6.41;100.00;102911.94;5227721;28;20021;-77
2022/03/25 00:38:44;;;;;;;78.20;30.25;;;;;;;6.28;100.00;102910.06;5228034;28;20033;-77
2022/03/25 00:41:16;;;;;;;86.35;29.85;;;;;;;6.14;100.00;102918.84;5228018;28;20112;-77
2022/03/25 00:43:47;;;;;;;85.20;31.13;;;;;;;6.07;100.00;102917.47;5226884;28;20040;-77
2022/03/25 00:46:18;;;;;;;78.25;30.02;;;;;;;6.01;100.00;102916.00;5225794;28;20068;-77
2022/03/25 00:48:48;;;;;;;85.65;31.67;;;;;;;6.00;100.00;102916.09;5228302;28;20021;-77
2022/03/25 00:51:19;;;;;;;84.97;32.50;;;;;;;5.96;100.00;102920.72;5227738;28;20059;-77
2022/03/25 00:53:49;;;;;;;76.32;31.67;;;;;;;5.92;100.00;102909.41;5227938;28;20017;-77
2022/03/25 00:56:20;;;;;;;75.53;30.80;;;;;;;5.96;100.00;102908.28;5227340;28;20025;-77
2022/03/25 00:58:51;;;;;;;88.72;33.40;;;;;;;5.97;100.00;102906.47;5226750;28;20033;-77
2022/03/25 01:01:21;;;;;;;83.15;31.92;;;;;;;6.01;100.00;102908.00;5222929;28;20059;-77
2022/03/25 01:03:52;;;;;;;97.63;32.15;;;;;;;5.98;100.00;102908.19;5218217;28;20430;-77
2022/03/25 01:06:24;;;;;;;84.63;30.77;;;;;;;5.93;100.00;102910.25;5227049;28;20022;-77
2022/03/25 01:08:55;;;;;;;83.93;30.95;;;;;;;5.86;100.00;102903.50;5212823;28;20029;-77
2022/03/25 01:11:27;;;;;;;92.60;32.70;;;;;;;5.80;100.00;102910.03;5227302;28;20033;-77
2022/03/25 01:13:58;;;;;;;88.25;31.98;;;;;;;5.72;100.00;102904.25;5227142;28;20021;-77
2022/03/25 01:16:29;;;;;;;75.43;29.73;;;;;;;5.65;100.00;102905.56;5226792;28;20029;-77
2022/03/25 01:19:00;;;;;;;83.88;31.60;;;;;;;5.60;100.00;102908.47;5225942;28;20411;-77
2022/03/25 01:21:30;;;;;;;85.70;33.85;;;;;;;5.58;100.00;102909.53;5227191;28;20017;-77
2022/03/25 01:24:01;;;;;;;80.53;30.10;;;;;;;5.53;100.00;102907.09;5227420;28;20067;-77
2022/03/25 01:26:31;;;;;;;78.78;30.63;;;;;;;5.54;100.00;102907.97;5226690;28;20540;-77
2022/03/25 01:29:04;;;;;;;91.72;34.90;;;;;;;5.60;100.00;102907.63;5227098;28;20060;-77
2022/03/25 01:31:35;;;;;;;95.80;32.70;;;;;;;5.60;100.00;102899.63;5216500;28;20576;-77
2022/03/25 01:34:06;;;;;;;89.63;32.28;;;;;;;5.57;100.00;102903.34;5226321;28;20096;-77
2022/03/25 01:36:37;;;;;;;82.78;31.45;;;;;;;5.54;100.00;102905.28;5225562;28;20480;-77
2022/03/25 01:39:07;;;;;;;99.05;34.03;;;;;;;5.51;100.00;102897.47;5226951;28;20020;-77
2022/03/25 01:41:38;;;;;;;92.57;31.95;;;;;;;5.46;100.00;102900.38;5226768;28;20361;-77
2022/03/25 01:44:11;;;;;;;80.82;31.23;;;;;;;5.43;100.00;102900.56;5226201;28;20025;-77
2022/03/25 01:46:42;;;;;;;100.75;34.03;;;;;;;5.39;100.00;102902.50;5226849;28;20021;-77
2022/03/25 01:49:13;;;;;;;95.78;35.58;;;;;;;5.33;100.00;102896.66;5225132;28;20028;-77
2022/03/25 01:51:43;;;;;;;100.25;33.55;;;;;;;5.23;100.00;102898.97;5226565;28;20028;-77
2022/03/25 01:54:34;;;;;;;83.75;31.25;;;;;;;5.07;100.00;102898.91;5226215;28;20472;-76
2022/03/25 01:57:08;;;;;;;92.82;34.25;;;;;;;5.00;100.00;102901.97;5226553;28;20025;-77
2022/03/25 01:59:39;;;;;;;93.20;32.97;;;;;;;4.93;100.00;102896.09;5226454;28;20021;-77
2022/03/25 02:02:11;;;;;;;96.15;35.85;;;;;;;4.91;100.00;102898.81;5219649;28;20290;-77
2022/03/25 02:04:42;;;;;;;108.15;35.58;;;;;;;4.90;100.00;102894.44;5226110;28;20025;-77
2022/03/25 02:07:12;;;;;;;108.38;36.75;;;;;;;4.89;100.00;102899.88;5219941;28;20508;-77
2022/03/25 02:09:43;;;;;;;84.40;30.70;;;;;;;4.81;100.00;102896.72;5218042;28;20063;-77
2022/03/25 02:12:14;;;;;;;100.85;34.25;;;;;;;4.72;100.00;102898.09;5213723;28;20021;-77
2022/03/25 02:14:44;;;;;;;93.47;34.17;;;;;;;4.65;100.00;102900.16;5218892;28;20039;-77
2022/03/25 02:17:15;;;;;;;95.07;34.78;;;;;;;4.60;100.00;102898.69;5226449;28;20017;-77
2022/03/25 02:19:48;;;;;;;95.82;32.47;;;;;;;4.58;100.00;102900.56;5226213;28;20096;-77
2022/03/25 02:22:19;;;;;;;96.18;34.20;;;;;;;4.56;100.00;102902.44;5226712;28;20377;-77
2022/03/25 02:24:50;;;;;;;91.68;34.50;;;;;;;4.52;100.00;102892.88;5225516;28;20032;-76
2022/03/25 02:27:23;;;;;;;106.53;34.65;;;;;;;4.49;100.00;102895.72;5226364;28;20017;-77
2022/03/25 02:29:53;;;;;;;100.75;36.10;;;;;;;4.48;100.00;102899.31;5223171;28;20020;-77
2022/03/25 02:32:24;;;;;;;104.35;35.70;;;;;;;4.48;100.00;102897.50;5219271;28;20116;-77
2022/03/25 02:34:54;;;;;;;103.50;36.72;;;;;;;4.51;100.00;102896.47;5225828;28;20507;-77
2022/03/25 02:37:26;;;;;;;111.75;38.30;;;;;;;4.52;100.00;102898.19;5225889;28;20025;-77
2022/03/25 02:39:56;;;;;;;114.35;37.35;;;;;;;4.52;100.00;102890.22;5225849;28;20051;-77
2022/03/25 02:42:27;;;;;;;104.35;35.05;;;;;;;4.54;100.00;102899.00;5225661;28;20394;-77
2022/03/25 02:44:58;;;;;;;113.05;38.75;;;;;;;4.54;100.00;102891.88;5224643;28;20432;-77
2022/03/25 02:47:29;;;;;;;110.38;38.03;;;;;;;4.53;100.00;102903.47;5225922;28;20025;-76
2022/03/25 02:49:59;;;;;;;99.95;34.80;;;;;;;4.53;100.00;102897.28;5226045;28;20110;-77
2022/03/25 02:52:30;;;;;;;111.75;39.35;;;;;;;4.50;100.00;102900.09;5225656;28;20017;-76
2022/03/25 02:55:01;;;;;;;119.60;38.60;;;;;;;4.51;100.00;102899.16;5225018;28;20033;-76
2022/03/25 02:57:31;;;;;;;121.38;39.95;;;;;;;4.53;100.00;102897.28;5225091;28;20035;-76
2022/03/25 03:00:08;;;;;;;120.47;39.50;;;;;;;4.53;100.00;102900.81;5224249;28;20025;-75
2022/03/25 03:02:43;;;;;;;111.15;36.60;;;;;;;4.54;100.00;102901.66;5219972;28;20033;-75
2022/03/25 03:05:14;;;;;;;114.30;37.00;;;;;;;4.55;100.00;102898.91;5224718;28;20488;-75
2022/03/25 03:07:45;;;;;;;101.80;35.63;;;;;;;4.57;100.00;102904.19;5214787;28;20534;-75
2022/03/25 03:10:16;;;;;;;110.40;37.45;;;;;;;4.56;100.00;102908.59;5223029;28;20113;-75
2022/03/25 03:12:47;;;;;;;102.03;35.53;;;;;;;4.56;100.00;102913.91;5226047;28;20091;-76
2022/03/25 03:15:19;;;;;;;108.20;33.35;;;;;;;4.58;100.00;102921.84;5217479;28;20029;-75
2022/03/25 03:17:49;;;;;;;110.03;36.83;;;;;;;4.57;100.00;102904.19;5225468;28;20743;-75
2022/03/25 03:20:21;;;;;;;100.93;35.20;;;;;;;4.54;100.00;102910.50;5225264;28;20599;-75
2022/03/25 03:22:52;;;;;;;118.57;37.13;;;;;;;4.51;100.00;102909.78;5225637;28;20108;-75
2022/03/25 03:25:23;;;;;;;110.03;37.83;;;;;;;4.44;100.00;102914.53;5224803;28;20154;-75
2022/03/25 03:27:54;;;;;;;117.30;39.70;;;;;;;4.35;100.00;102909.69;5224453;28;20455;-75
2022/03/25 03:30:24;;;;;;;111.38;37.90;;;;;;;4.26;100.00;102912.78;5217826;28;20036;-74
2022/03/25 03:32:57;;;;;;;109.80;37.78;;;;;;;4.20;100.00;102913.94;5222719;28;20025;-75
2022/03/25 03:35:27;;;;;;;108.55;36.40;;;;;;;4.03;100.00;102905.94;5224452;28;20029;-75
2022/03/25 03:37:58;;;;;;;98.80;35.28;;;;;;;3.87;100.00;102905.81;5225101;28;20052;-77
2022/03/25 03:40:29;;;;;;;109.28;34.30;;;;;;;3.73;100.00;102910.91;5224674;28;20040;-75
2022/03/25 03:42:59;;;;;;;100.82;35.70;;;;;;;3.57;100.00;102911.63;5224781;28;20025;-76
2022/03/25 03:45:32;;;;;;;95.85;33.35;;;;;;;3.50;100.00;102910.16;5225157;28;20031;-76
2022/03/25 03:48:02;;;;;;;96.07;33.30;;;;;;;3.45;100.00;102916.63;5225127;28;20029;-76
2022/03/25 03:50:33;;;;;;;88.95;30.42;;;;;;;3.37;100.00;102919.63;5224935;28;20036;-76
2022/03/25 03:53:04;;;;;;;89.13;31.80;;;;;;;3.28;100.00;102917.38;5225795;28;20032;-77
2022/03/25 03:55:34;;;;;;;101.25;34.63;;;;;;;3.21;100.00;102919.44;5224262;28;20025;-77
2022/03/25 03:58:05;;;;;;;104.38;35.13;;;;;;;3.17;100.00;102917.00;5229075;28;20028;-77
2022/03/25 04:00:35;;;;;;;103.32;32.60;;;;;;;3.15;100.00;102922.38;5228846;28;20500;-77
2022/03/25 04:03:07;;;;;;;108.72;36.55;;;;;;;3.19;100.00;102925.75;5223373;28;20037;-77
2022/03/25 04:05:37;;;;;;;112.07;37.33;;;;;;;3.20;100.00;102919.50;5228367;28;20045;-76
2022/03/25 04:08:08;;;;;;;113.78;35.42;;;;;;;3.20;100.00;102924.81;5215838;28;20434;-77
2022/03/25 04:10:38;;;;;;;102.57;32.90;;;;;;;3.19;100.00;102916.00;5228704;28;20075;-77
2022/03/25 04:13:09;;;;;;;108.35;36.80;;;;;;;3.23;100.00;102922.03;5229027;28;20025;-77
2022/03/25 04:15:39;;;;;;;109.28;37.33;;;;;;;3.21;100.00;102927.38;5221370;28;20461;-77
2022/03/25 04:18:10;;;;;;;109.68;35.67;;;;;;;3.18;100.00;102916.94;5228582;28;20032;-76
2022/03/25 04:20:40;;;;;;;120.55;36.42;;;;;;;3.14;100.00;102922.44;5228790;28;20021;-76
2022/03/25 04:23:11;;;;;;;108.93;37.78;;;;;;;3.08;100.00;102921.78;5229167;28;20043;-75
2022/03/25 04:25:42;;;;;;;102.28;36.55;;;;;;;3.03;100.00;102920.25;5228421;28;20502;-75
2022/03/25 04:28:12;;;;;;;99.70;33.67;;;;;;;2.98;100.00;102920.47;5228709;28;20067;-75
2022/03/25 04:30:43;;;;;;;114.78;37.08;;;;;;;2.98;100.00;102928.41;5219220;28;20025;-75
2022/03/25 04:33:13;;;;;;;116.00;35.88;;;;;;;2.94;100.00;102916.22;5228463;28;20032;-75
2022/03/25 04:35:44;;;;;;;92.78;30.70;;;;;;;2.94;100.00;102926.81;5228432;28;20032;-75
2022/03/25 04:38:15;;;;;;;106.32;34.90;;;;;;;2.99;100.00;102922.16;5228319;28;20055;-75
2022/03/25 04:40:45;;;;;;;99.10;31.88;;;;;;;3.00;100.00;102923.03;5227988;28;20071;-75
2022/03/25 04:43:16;;;;;;;91.70;30.90;;;;;;;2.99;100.00;102923.97;5227994;28;20078;-75
2022/03/25 04:45:46;;;;;;;102.32;32.95;;;;;;;2.97;100.00;102924.03;5228281;28;20039;-75
2022/03/25 04:48:17;;;;;;;99.57;31.83;;;;;;;2.93;100.00;102916.28;5228506;28;20021;-75
2022/03/25 04:50:47;;;;;;;113.32;36.00;;;;;;;2.88;100.00;102928.88;5227812;28;20473;-75
2022/03/25 04:53:17;;;;;;;100.15;33.10;;;;;;;2.82;100.00;102925.56;5228796;28;20404;-75
2022/03/25 04:55:48;;;;;;;100.45;30.45;;;;;;;2.77;100.00;102924.03;5227537;28;20032;-75
2022/03/25 04:58:19;;;;;;;102.15;33.95;;;;;;;2.70;100.00;102922.56;5228063;28;20020;-75
2022/03/25 05:00:49;;;;;;;94.72;33.03;;;;;;;2.65;100.00;102929.84;5227552;28;20074;-75
2022/03/25 05:03:20;;;;;;;103.55;32.78;;;;;;;2.63;100.00;102931.69;5220920;28;20512;-75
2022/03/25 05:05:50;;;;;;;113.32;34.33;;;;;;;2.64;100.00;102934.28;5227690;28;20115;-74
2022/03/25 05:08:21;;;;;;;103.78;32.97;;;;;;;2.65;100.00;102924.53;5212917;28;20060;-75
2022/03/25 05:10:52;;;;;;;92.60;31.65;;;;;;;2.62;100.00;102927.34;5227774;28;20082;-74
2022/03/25 05:13:22;;;;;;;94.95;34.13;;;;;;;2.58;100.00;102934.53;5228026;28;20017;-75
2022/03/25 05:15:53;;;;;;;93.80;32.13;;;;;;;2.64;100.00;102942.22;5219729;28;20365;-75
2022/03/25 05:18:24;;;;;;;103.30;34.60;;;;;;;2.65;100.00;102937.78;5227694;28;20494;-75
2022/03/25 05:20:54;;;;;;;104.80;32.38;;;;;;;2.61;100.00;102934.44;5227223;28;20028;-74
2022/03/25 05:23:25;;;;;;;105.95;33.50;;;;;;;2.54;100.00;102944.41;5227649;28;20491;-75
2022/03/25 05:25:55;;;;;;;97.25;33.85;;;;;;;2.50;100.00;102944.59;5227101;28;20071;-75
2022/03/25 05:28:26;;;;;;;104.72;34.60;;;;;;;2.46;100.00;102940.31;5227576;28;20029;-75
2022/03/25 05:30:56;;;;;;;88.88;31.17;;;;;;;2.43;100.00;102946.63;5217564;28;20171;-75
2022/03/25 05:33:27;;;;;;;97.82;34.15;;;;;;;2.46;100.00;102942.97;5226149;28;20125;-75
2022/03/25 05:35:57;;;;;;;105.40;34.38;;;;;;;2.51;100.00;102956.91;5226998;28;20021;-75
2022/03/25 05:38:28;;;;;;;110.57;35.42;;;;;;;2.51;100.00;102954.25;5227367;28;20051;-75
2022/03/25 05:40:58;;;;;;;114.30;36.05;;;;;;;2.46;100.00;102949.16;5226854;28;20028;-74
2022/03/25 05:43:28;;;;;;;113.07;35.20;;;;;;;2.41;100.00;102945.84;5227105;28;20111;-75
2022/03/25 05:45:59;;;;;;;117.95;35.92;;;;;;;2.35;100.00;102948.72;5226656;28;20439;-75
2022/03/25 05:48:30;;;;;;;115.20;38.35;;;;;;;2.32;100.00;102955.00;5227420;28;20368;-75
2022/03/25 05:51:00;;;;;;;121.55;38.85;;;;;;;2.33;100.00;102956.72;5225534;28;20103;-75
2022/03/25 05:53:32;;;;;;;112.53;37.25;;;;;;;2.35;100.00;102956.66;5227205;28;20435;-76
2022/03/25 05:56:04;;;;;;;107.38;35.30;;;;;;;2.34;100.00;102961.09;5226172;28;20036;-77
2022/03/25 05:58:35;;;;;;;105.30;36.60;;;;;;;2.32;100.00;102955.00;5227113;28;20020;-75
2022/03/25 06:01:07;;;;;;;111.93;36.92;;;;;;;2.35;100.00;102967.25;5224491;28;20027;-75
2022/03/25 06:03:38;;;;;;;111.07;37.17;;;;;;;2.36;100.00;102966.34;5223012;28;20036;-74
2022/03/25 06:06:09;;;;;;;113.28;37.33;;;;;;;2.40;100.00;102961.78;5224966;28;20024;-75
2022/03/25 06:08:39;;;;;;;109.25;34.85;;;;;;;2.46;100.00;102970.38;5212157;28;20025;-74
2022/03/25 06:11:09;;;;;;;115.70;34.97;;;;;;;2.65;100.00;102974.88;5226528;28;20036;-74
2022/03/25 06:13:40;;;;;;;110.55;34.50;;;;;;;2.84;100.00;102975.84;5226747;28;20440;-74
2022/03/25 06:16:11;;;;;;;105.40;36.15;;;;;;;3.00;100.00;102976.06;5219332;28;20104;-76
2022/03/25 06:18:41;;;;;;;99.68;33.03;;;;;;;3.21;100.00;102982.22;5225329;28;20112;-76
2022/03/25 06:21:12;;;;;;;111.47;35.17;;;;;;;3.47;100.00;102978.47;5224555;28;20433;-78
2022/03/25 06:23:42;;;;;;;105.65;35.33;;;;;;;3.81;100.00;102980.44;5226557;28;20449;-75
2022/03/25 06:26:13;;;;;;;101.15;35.25;;;;;;;4.21;100.00;102981.22;5225973;28;20383;-75
2022/03/25 06:28:43;;;;;;;91.75;32.47;;;;;;;4.57;100.00;102983.94;5226280;28;20071;-74
2022/03/25 06:31:13;;;;;;;83.45;31.25;;;;;;;4.81;100.00;102981.81;5216916;28;20124;-76
2022/03/25 06:33:44;;;;;;;88.85;32.90;;;;;;;5.12;100.00;102984.69;5225961;28;20384;-76
2022/03/25 06:36:14;;;;;;;83.35;30.70;;;;;;;5.42;100.00;102986.66;5225432;28;20036;-76
2022/03/25 06:38:45;;;;;;;75.38;30.73;;;;;;;5.81;100.00;102990.81;5226502;28;20033;-75
2022/03/25 06:41:15;;;;;;;75.53;27.75;;;;;;;6.07;100.00;102979.59;5226110;28;20411;-75
2022/03/25 06:43:46;;;;;;;79.80;29.98;;;;;;;6.23;100.00;102990.31;5225853;28;20488;-75
2022/03/25 06:46:17;;;;;;;81.72;32.20;;;;;;;6.29;100.00;102979.28;5225249;28;20037;-75
2022/03/25 06:48:48;;;;;;;64.97;28.15;;;;;;;6.59;100.00;102983.81;5226080;28;20025;-75
2022/03/25 06:51:19;;;;;;;71.18;29.35;;;;;;;6.92;100.00;102987.16;5226141;28;20295;-75
2022/03/25 06:53:50;;;;;;;75.20;28.75;;;;;;;7.19;100.00;102989.19;5224704;28;20060;-75
2022/03/25 06:56:20;;;;;;;66.20;28.55;;;;;;;7.62;100.00;102983.88;5224957;28;20120;-75
2022/03/25 06:58:52;;;;;;;64.65;28.52;;;;;;;8.12;100.00;102994.06;5224530;28;20037;-75
2022/03/25 07:01:23;;;;;;;70.22;29.33;;;;;;;8.55;100.00;102989.50;5221113;28;20056;-75
2022/03/25 07:03:53;;;;;;;74.63;30.83;;;;;;;9.14;100.00;102990.97;5224505;28;20029;-75
2022/03/25 07:06:25;;;;;;;72.30;31.58;;;;;;;9.49;100.00;102991.22;5225217;28;20429;-76
2022/03/25 07:08:57;;;;;;;71.57;30.38;;;;;;;9.89;100.00;102989.25;5191163;28;20024;-75
2022/03/25 07:11:27;;;;;;;66.18;31.45;;;;;;;10.27;100.00;102989.16;5205467;28;20029;-75
2022/03/25 07:13:58;;;;;;;72.03;31.48;;;;;;;10.53;100.00;102994.44;5221723;28;20017;-76
2022/03/25 07:16:28;;;;;;;78.50;34.25;;;;;;;10.88;100.00;102986.44;5219106;28;20094;-76
2022/03/25 07:18:59;;;;;;;79.85;33.63;;;;;;;11.07;100.00;102991.25;5223970;28;20020;-76
2022/03/25 07:21:30;;;;;;;82.00;36.15;;;;;;;11.03;100.00;102989.78;5223524;28;20033;-76
2022/03/25 07:24:00;;;;;;;86.07;35.05;;;;;;;11.14;100.00;102998.75;5223934;28;20456;-76
2022/03/25 07:26:31;;;;;;;86.65;35.30;;;;;;;11.56;100.00;103004.44;5224229;28;20032;-76
2022/03/25 07:29:01;;;;;;;88.75;35.08;;;;;;;11.51;100.00;103005.78;5224111;28;20025;-76
2022/03/25 07:31:32;;;;;;;73.35;35.28;;;;;;;11.81;100.00;103006.06;5213198;28;20028;-76
2022/03/25 07:34:02;;;;;;;78.93;36.95;;;;;;;11.94;100.00;103008.63;5223529;28;20013;-76
2022/03/25 07:36:33;;;;;;;81.82;35.55;;;;;;;12.19;100.00;103010.22;5223318;28;20056;-76
2022/03/25 07:39:05;;;;;;;77.85;35.10;;;;;;;12.51;100.00;103009.44;5223476;28;20036;-76
2022/03/25 07:41:35;;;;;;;80.47;34.30;;;;;;;12.98;100.00;103013.53;5223212;28;20033;-76
2022/03/25 07:44:06;;;;;;;82.32;35.85;;;;;;;13.26;100.00;103016.63;5221962;28;20040;-77
2022/03/25 07:46:36;;;;;;;71.28;34.17;;;;;;;13.39;100.00;103020.81;5223209;28;20187;-77
2022/03/25 07:49:07;;;;;;;68.43;34.83;;;;;;;14.30;100.00;103020.97;5223438;28;20032;-76
2022/03/25 07:51:38;;;;;;;75.65;35.58;;;;;;;13.52;100.00;103023.31;5223346;28;20029;-76
2022/03/25 07:54:08;;;;;;;73.65;35.85;;;;;;;13.58;100.00;103021.94;5204245;28;20028;-76
2022/03/25 07:56:39;;;;;;;81.18;36.65;;;;;;;13.36;100.00;103028.34;5215647;28;20433;-77
2022/03/25 07:59:11;;;;;;;79.55;36.78;;;;;;;13.66;100.00;103025.69;5216840;28;20041;-78
2022/03/25 08:01:41;;;;;;;69.93;35.00;;;;;;;13.70;100.00;103031.66;5202310;28;20028;-78
2022/03/25 08:04:11;;;;;;;77.28;35.72;;;;;;;14.00;100.00;103033.50;5225438;28;20547;-77
2022/03/25 08:06:42;;;;;;;72.57;37.55;;;;;;;13.92;100.00;103027.94;5221308;28;21011;-77
2022/03/25 08:09:13;;;;;;;83.60;38.95;;;;;;;13.80;100.00;103032.56;5202865;28;20033;-77
2022/03/25 08:11:45;;;;;;;83.95;40.03;;;;;;;14.03;100.00;103035.94;5219204;28;20024;-77
2022/03/25 08:14:17;;;;;;;83.40;40.67;;;;;;;14.39;100.00;103036.34;5217740;28;20108;-77
2022/03/25 08:16:47;;;;;;;80.70;40.70;;;;;;;14.64;100.00;103032.31;5216305;28;20067;-77
2022/03/25 08:19:17;;;;;;;79.82;38.90;;;;;;;14.91;100.00;103035.19;5215074;28;20157;-77
2022/03/25 08:21:48;;;;;;;77.95;38.38;;;;;;;15.17;90.88;103042.72;5223035;28;20040;-77
2022/03/25 08:29:55;;;;;;;74.43;39.05;;;;;;;15.80;89.12;103057.44;5220025;28;20067;-77
2022/03/25 08:32:25;;;;;;;77.75;38.03;;;;;;;16.36;76.44;103050.19;5215790;28;20025;-77
2022/03/25 08:34:56;;;;;;;84.22;41.55;;;;;;;15.73;84.40;103053.63;5221587;28;20079;-77
2022/03/25 08:37:26;;;;;;;79.63;40.63;;;;;;;15.78;82.11;103054.03;5209716;28;20087;-77
2022/03/25 08:39:57;;;;;;;85.57;41.33;;;;;;;15.99;81.86;103050.25;5222807;28;20665;-77
2022/03/25 08:42:27;;;;;;;99.35;43.05;;;;;;;15.61;82.65;103054.72;5223556;28;20035;-77
2022/03/25 08:44:58;;;;;;;91.53;42.40;;;;;;;15.64;78.72;103054.47;5226175;28;20057;-77
2022/03/25 08:47:28;;;;;;;85.80;40.90;;;;;;;16.16;81.26;103049.44;5226860;28;20027;-77
2022/03/25 08:49:59;;;;;;;80.45;38.08;;;;;;;18.11;64.72;103054.97;5225458;28;20373;-77
2022/03/25 08:52:30;;;;;;;77.10;37.92;;;;;;;17.64;64.63;103055.34;5208499;28;20035;-77
2022/03/25 08:55:00;;;;;;;76.80;40.05;;;;;;;16.90;74.83;103055.75;5218441;28;20567;-77
2022/03/25 08:57:31;;;;;;;73.78;38.42;;;;;;;17.36;66.76;103062.75;5220538;28;20866;-77
2022/03/25 09:00:03;;;;;;;75.35;38.78;;;;;;;16.54;73.18;103067.38;5218959;28;20055;-77
2022/03/25 09:02:34;;;;;;;79.70;39.72;;;;;;;16.74;75.49;103065.41;5219455;28;20029;-77
2022/03/25 09:05:05;;;;;;;77.10;39.58;;;;;;;16.82;76.38;103067.38;5212579;28;20072;-77
2022/03/25 09:07:37;;;;;;;78.53;38.88;;;;;;;17.07;75.51;103071.19;5216848;28;20057;-77
2022/03/25 09:10:26;;;;;;;79.70;37.83;;;;;;;16.65;76.09;103066.28;5203921;28;20055;-76
2022/03/25 09:13:17;;;;;;;78.60;38.03;;;;;;;16.80;73.51;103067.50;5202122;28;20060;-77
2022/03/25 09:16:09;;;;;;;72.60;35.33;;;;;;;16.98;68.59;103066.69;5201423;28;20116;-77
2022/03/25 09:18:59;;;;;;;75.57;36.55;;;;;;;17.27;68.30;103077.25;5237904;28;20039;-76
2022/03/25 09:21:50;;;;;;;74.68;35.75;;;;;;;17.45;66.09;103074.53;5243235;28;20640;-76
2022/03/25 09:24:41;;;;;;;70.88;36.00;;;;;;;17.20;62.61;103068.06;5256233;28;20491;-76
2022/03/25 09:27:31;;;;;;;71.10;33.47;;;;;;;17.64;61.36;103073.50;5245337;28;20119;-76
2022/03/25 09:30:22;;;;;;;71.95;34.83;;;;;;;17.69;63.23;103073.88;5255645;28;20027;-77
2022/03/25 09:33:13;;;;;;;66.35;31.92;;;;;;;17.64;61.23;103071.63;5247652;28;20615;-80
2022/03/25 09:36:04;;;;;;;70.35;33.85;;;;;;;17.75;62.91;103076.81;5251192;28;20074;-79
2022/03/25 09:38:55;;;;;;;67.22;31.77;;;;;;;18.06;63.41;103073.59;5242622;28;20028;-77
2022/03/25 09:41:46;;;;;;;63.22;30.92;;;;;;;18.15;57.77;103072.63;5242652;28;20066;-77
2022/03/25 09:44:40;;;;;;;61.83;28.58;;;;;;;18.04;52.93;103070.22;5241679;28;20029;-77
2022/03/25 09:47:32;;;;;;;52.42;26.42;;;;;;;17.81;52.78;103064.47;5242830;28;20491;-77
2022/03/25 09:50:24;;;;;;;56.13;28.13;;;;;;;17.80;52.11;103069.06;5241066;28;20039;-77
2022/03/25 09:53:15;;;;;;;61.13;30.13;;;;;;;17.50;53.88;103064.91;5242086;28;20056;-77
2022/03/25 09:56:06;;;;;;;65.70;30.20;;;;;;;17.84;56.39;103065.00;5241287;28;20077;-77
2022/03/25 09:58:57;;;;;;;54.33;26.35;;;;;;;18.44;53.91;103065.97;5241186;28;20381;-77
2022/03/25 10:01:48;;;;;;;52.72;27.08;;;;;;;18.75;52.07;103063.53;5241816;28;20025;-77
2022/03/25 10:04:41;;;;;;;56.22;25.85;;;;;;;18.68;53.62;103057.94;5241765;28;20021;-77
2022/03/25 10:07:33;;;;;;;52.83;25.30;;;;;;;18.72;49.28;103058.44;5242042;28;20469;-77
2022/03/25 10:10:28;;;;;;;60.25;26.02;;;;;;;18.84;50.03;103057.09;5241572;28;20031;-78
2022/03/25 10:13:19;;;;;;;54.60;25.63;;;;;;;18.91;49.68;103060.00;5254870;28;20028;-77
2022/03/25 10:16:30;;;;;;;47.35;23.85;;;;;;;18.95;50.77;103055.94;5241443;28;20067;-77
2022/03/25 10:19:23;;;;;;;48.20;23.08;;;;;;;18.81;49.66;103063.72;5227147;28;20039;-78
2022/03/25 10:22:16;;;;;;;40.13;21.10;;;;;;;18.59;46.65;103059.75;5254766;28;20090;-77
2022/03/25 10:25:09;;;;;;;48.75;22.75;;;;;;;18.52;48.41;103065.97;5227088;28;20039;-77
2022/03/25 10:28:00;;;;;;;47.28;22.58;;;;;;;18.45;46.80;103062.25;5242064;28;20029;-77
2022/03/25 10:30:54;;;;;;;48.25;22.17;;;;;;;17.97;44.58;103058.28;5241383;28;20039;-76
2022/03/25 10:33:46;;;;;;;49.88;22.42;;;;;;;17.96;47.10;103062.00;5241080;28;20032;-77
2022/03/25 10:36:38;;;;;;;53.03;24.17;;;;;;;18.08;46.49;103067.00;5229776;28;20032;-77
2022/03/25 10:39:16;;;;;;;53.72;22.95;;;;;;;18.23;46.71;103059.09;5245930;28;20049;-77
2022/03/25 10:41:49;;;;;;;57.65;24.13;;;;;;;18.14;43.87;103057.38;5225589;28;20062;-77
2022/03/25 10:44:32;;;;;;;;;;;;;;;17.56;42.54;103055.28;5260154;28;20442;-77
2022/03/25 10:47:24;;;;;;;47.83;22.50;;;;;;;17.91;46.22;103056.22;5265375;28;19908;-77
2022/03/25 10:50:10;;;;;;;48.90;23.70;;;;;;;18.13;47.81;103052.94;5265512;28;20024;-77
2022/03/25 10:52:41;;;;;;;55.55;24.58;;;;;;;18.46;46.43;103061.22;5265827;28;20509;-77
2022/03/25 10:55:14;;;;;;;47.10;23.35;;;;;;;18.75;44.25;103058.94;5238769;28;20032;-77
2022/03/25 10:58:00;;;;;;;52.58;24.92;;;;;;;18.68;46.24;103052.50;5263916;28;20111;-77
2022/03/25 11:00:30;;;;;;;46.78;22.67;;;;;;;18.61;47.15;103038.66;5256709;28;20113;-77
2022/03/25 11:03:01;;;;;;;43.70;22.10;;;;;;;18.66;46.13;103040.03;5265261;28;20024;-77
2022/03/25 11:05:33;;;;;;;46.97;22.45;;;;;;;18.64;43.38;103034.78;5264440;28;20035;-77
2022/03/25 11:08:04;;;;;;;39.47;20.17;;;;;;;18.83;41.66;103029.06;5265247;28;20458;-77
2022/03/25 11:10:35;;;;;;;44.30;19.08;;;;;;;18.76;42.74;103032.59;5265066;28;20112;-77
2022/03/25 11:13:05;;;;;;;41.90;21.15;;;;;;;19.02;40.58;103029.75;5242966;28;20475;-77
2022/03/25 11:15:38;;;;;;;48.28;21.65;;;;;;;18.99;46.18;103030.09;5253080;28;20039;-77
2022/03/25 11:18:08;;;;;;;51.22;22.55;;;;;;;19.15;45.33;103032.81;5265490;28;20050;-77
2022/03/25 11:20:40;;;;;;;46.88;22.00;;;;;;;19.09;43.22;103025.34;5265128;28;20028;-77
2022/03/25 11:23:15;;;;;;;43.55;21.13;;;;;;;18.98;41.80;103026.53;5246925;28;20107;-77
2022/03/25 11:25:56;;;;;;;;;;;;;;;18.24;42.46;103027.34;5265284;28;20483;-77
2022/03/25 11:28:31;;;;;;;40.22;18.35;;;;;;;18.27;40.84;103016.13;5264865;28;19919;-77
2022/03/25 11:31:04;;;;;;;43.63;18.58;;;;;;;18.70;40.17;103012.38;5265050;28;20020;-77
2022/03/25 11:34:07;;;;;;;40.42;19.27;;;;;;;18.64;43.30;103013.88;5265074;28;20039;-77
2022/03/25 11:36:42;;;;;;;41.50;18.88;;;;;;;18.44;40.63;103012.47;5248074;28;20096;-79
2022/03/25 11:39:35;;;;;;;38.58;19.77;;;;;;;18.54;42.14;103017.75;5237504;28;20044;-78
2022/03/25 11:42:07;;;;;;;52.35;20.42;;;;;;;18.64;41.37;103010.31;5227030;28;20039;-78